createdAt,value
2018-07-14T00:00:41.484Z,17.53
2018-07-14T00:01:41.435Z,17.54
2018-07-14T00:02:41.386Z,17.59
2018-07-14T00:03:41.337Z,17.54
2018-07-14T00:04:41.285Z,17.53
2018-07-14T00:05:41.236Z,17.51
2018-07-14T00:06:41.187Z,17.36
2018-07-14T00:07:41.141Z,17.32
2018-07-14T00:08:41.085Z,17.32
2018-07-14T00:09:41.036Z,17.32
2018-07-14T00:10:40.988Z,17.22
2018-07-14T00:11:40.936Z,17.23
2018-07-14T00:12:40.887Z,17.28
2018-07-14T00:13:40.838Z,17.17
2018-07-14T00:14:40.785Z,17.15
2018-07-14T00:15:40.734Z,17.17
2018-07-14T00:16:40.684Z,17.15
2018-07-14T00:17:40.634Z,17.13
2018-07-14T00:18:40.592Z,17.13
2018-07-14T00:19:40.538Z,17.10
2018-07-14T00:20:40.483Z,17.15
2018-07-14T00:21:40.433Z,17.17
2018-07-14T00:22:40.383Z,17.17
2018-07-14T00:23:40.333Z,17.10
2018-07-14T00:24:40.288Z,17.22
2018-07-14T00:25:40.241Z,17.23
2018-07-14T00:26:40.182Z,17.25
2018-07-14T00:27:40.132Z,17.17
2018-07-14T00:28:40.083Z,17.29
2018-07-14T00:29:40.032Z,17.23
2018-07-14T00:30:39.982Z,17.18
2018-07-14T00:31:39.932Z,17.23
2018-07-14T00:32:39.880Z,17.23
2018-07-14T00:33:39.845Z,17.23
2018-07-14T00:34:39.782Z,17.22
2018-07-14T00:35:39.731Z,17.23
2018-07-14T00:36:39.685Z,17.17
2018-07-14T00:37:39.629Z,17.15
2018-07-14T00:38:39.579Z,17.08
2018-07-14T00:39:39.531Z,17.03
2018-07-14T00:40:39.479Z,17.03
2018-07-14T00:41:39.434Z,16.96
2018-07-14T00:42:39.378Z,16.92
2018-07-14T00:43:39.327Z,16.92
2018-07-14T00:44:39.276Z,16.77
2018-07-14T00:45:39.225Z,16.77
2018-07-14T00:46:39.177Z,16.70
2018-07-14T00:47:39.126Z,16.71
2018-07-14T00:48:39.074Z,16.58
2018-07-14T00:49:39.024Z,16.58
2018-07-14T00:50:38.974Z,16.56
2018-07-14T00:51:38.924Z,16.53
2018-07-14T00:52:38.872Z,16.55
2018-07-14T00:53:38.821Z,16.56
2018-07-14T00:54:38.771Z,16.59
2018-07-14T00:55:38.721Z,16.60
2018-07-14T00:56:38.670Z,16.71
2018-07-14T00:57:38.619Z,16.68
2018-07-14T00:58:38.568Z,16.62
2018-07-14T00:59:38.517Z,16.65
2018-07-14T01:00:38.468Z,16.59
2018-07-14T01:01:38.415Z,16.74
2018-07-14T01:02:38.365Z,16.68
2018-07-14T01:03:38.314Z,16.71
2018-07-14T01:04:38.264Z,16.71
2018-07-14T01:05:38.212Z,16.74
2018-07-14T01:06:38.166Z,16.77
2018-07-14T01:07:38.114Z,16.78
2018-07-14T01:08:38.063Z,16.86
2018-07-14T01:09:38.012Z,16.83
2018-07-14T01:10:37.960Z,16.86
2018-07-14T01:11:37.910Z,16.92
2018-07-14T01:12:37.860Z,16.98
2018-07-14T01:13:37.807Z,16.92
2018-07-14T01:14:37.756Z,16.99
2018-07-14T01:15:37.707Z,16.98
2018-07-14T01:16:37.656Z,17.08
2018-07-14T01:17:37.646Z,17.15
2018-07-14T01:18:37.556Z,17.14
2018-07-14T01:19:37.505Z,17.20
2018-07-14T01:20:37.452Z,17.20
2018-07-14T01:21:37.402Z,17.28
2018-07-14T01:22:37.353Z,17.28
2018-07-14T01:23:37.302Z,17.23
2018-07-14T01:24:37.252Z,17.22
2018-07-14T01:25:37.202Z,17.14
2018-07-14T01:26:37.149Z,17.15
2018-07-14T01:27:37.100Z,17.08
2018-07-14T01:28:37.048Z,17.10
2018-07-14T01:29:37.000Z,16.98
2018-07-14T01:30:36.948Z,17.00
2018-07-14T01:31:36.898Z,17.07
2018-07-14T01:32:36.846Z,16.99
2018-07-14T01:33:36.794Z,17.04
2018-07-14T01:34:36.748Z,16.92
2018-07-14T01:35:36.694Z,16.99
2018-07-14T01:36:36.643Z,16.89
2018-07-14T01:37:36.594Z,16.95
2018-07-14T01:38:36.546Z,16.93
2018-07-14T01:39:36.493Z,16.98
2018-07-14T01:40:36.494Z,16.92
2018-07-14T01:41:36.392Z,16.95
2018-07-14T01:42:36.341Z,16.83
2018-07-14T01:43:36.296Z,16.86
2018-07-14T01:44:36.242Z,16.78
2018-07-14T01:45:36.188Z,16.86
2018-07-14T01:46:36.137Z,16.88
2018-07-14T01:47:36.088Z,16.89
2018-07-14T01:48:36.037Z,16.98
2018-07-14T01:49:35.987Z,16.90
2018-07-14T01:50:35.936Z,16.88
2018-07-14T01:51:35.886Z,16.92
2018-07-14T01:52:35.833Z,16.98
2018-07-14T01:53:35.785Z,16.86
2018-07-14T01:54:35.735Z,16.67
2018-07-14T01:55:35.683Z,16.73
2018-07-14T01:56:35.631Z,16.67
2018-07-14T01:57:35.583Z,16.62
2018-07-14T01:58:35.530Z,16.59
2018-07-14T01:59:35.480Z,16.52
2018-07-14T02:00:35.430Z,16.49
2018-07-14T02:01:35.378Z,16.45
2018-07-14T02:02:35.328Z,16.49
2018-07-14T02:03:35.276Z,16.40
2018-07-14T02:04:35.224Z,16.45
2018-07-14T02:05:35.175Z,16.37
2018-07-14T02:06:35.127Z,16.31
2018-07-14T02:07:35.072Z,16.30
2018-07-14T02:08:35.020Z,16.34
2018-07-14T02:09:34.976Z,16.35
2018-07-14T02:10:34.920Z,16.16
2018-07-14T02:11:34.872Z,16.18
2018-07-14T02:12:34.818Z,16.22
2018-07-14T02:13:34.768Z,16.22
2018-07-14T02:14:34.717Z,16.16
2018-07-14T02:15:34.668Z,16.23
2018-07-14T02:16:34.614Z,16.22
2018-07-14T02:17:34.563Z,16.15
2018-07-14T02:18:34.513Z,16.16
2018-07-14T02:19:34.467Z,16.23
2018-07-14T02:20:34.410Z,16.22
2018-07-14T02:21:34.369Z,16.16
2018-07-14T02:22:34.309Z,16.18
2018-07-14T02:23:34.259Z,16.20
2018-07-14T02:24:34.207Z,16.23
2018-07-14T02:25:34.155Z,16.23
2018-07-14T02:26:34.105Z,16.25
2018-07-14T02:27:34.059Z,16.16
2018-07-14T02:28:34.004Z,16.14
2018-07-14T02:29:33.953Z,16.20
2018-07-14T02:30:33.902Z,16.18
2018-07-14T02:31:33.854Z,16.20
2018-07-14T02:32:33.802Z,16.11
2018-07-14T02:33:33.751Z,16.09
2018-07-14T02:34:33.701Z,16.12
2018-07-14T02:35:33.658Z,16.14
2018-07-14T02:36:33.602Z,16.11
2018-07-14T02:37:33.549Z,16.06
2018-07-14T02:38:33.497Z,16.04
2018-07-14T02:39:33.444Z,16.03
2018-07-14T02:40:33.393Z,16.09
2018-07-14T02:41:33.343Z,16.09
2018-07-14T02:42:33.291Z,15.88
2018-07-14T02:43:33.240Z,15.63
2018-07-14T02:44:33.190Z,15.51
2018-07-14T02:45:33.137Z,15.45
2018-07-14T02:46:33.087Z,15.41
2018-07-14T02:47:33.034Z,15.36
2018-07-14T02:48:32.987Z,15.33
2018-07-14T02:49:32.931Z,15.26
2018-07-14T02:50:32.879Z,15.24
2018-07-14T02:51:32.829Z,15.31
2018-07-14T02:52:32.777Z,15.28
2018-07-14T02:53:32.728Z,15.28
2018-07-14T02:54:32.675Z,15.33
2018-07-14T02:55:32.623Z,15.36
2018-07-14T02:56:32.570Z,15.38
2018-07-14T02:57:32.523Z,15.36
2018-07-14T02:58:32.472Z,15.42
2018-07-14T02:59:32.417Z,15.42
2018-07-14T03:00:32.367Z,15.49
2018-07-14T03:01:32.314Z,15.51
2018-07-14T03:02:32.261Z,15.51
2018-07-14T03:03:32.211Z,15.49
2018-07-14T03:04:32.158Z,15.56
2018-07-14T03:05:32.107Z,15.54
2018-07-14T03:06:32.056Z,15.56
2018-07-14T03:07:32.005Z,15.63
2018-07-14T03:08:31.959Z,15.61
2018-07-14T03:09:31.905Z,15.63
2018-07-14T03:10:31.852Z,15.68
2018-07-14T03:11:31.798Z,15.75
2018-07-14T03:12:31.746Z,15.67
2018-07-14T03:13:31.694Z,15.63
2018-07-14T03:14:31.644Z,15.60
2018-07-14T03:15:31.593Z,15.61
2018-07-14T03:16:31.540Z,15.60
2018-07-14T03:17:31.488Z,15.61
2018-07-14T03:18:31.437Z,15.64
2018-07-14T03:19:31.425Z,15.57
2018-07-14T03:20:31.336Z,15.66
2018-07-14T03:21:31.292Z,15.64
2018-07-14T03:22:31.231Z,15.70
2018-07-14T03:23:31.178Z,15.75
2018-07-14T03:24:31.128Z,15.78
2018-07-14T03:25:31.076Z,15.88
2018-07-14T03:26:31.024Z,15.92
2018-07-14T03:27:30.974Z,15.88
2018-07-14T03:28:30.921Z,16.04
2018-07-14T03:29:30.872Z,16.00
2018-07-14T03:30:30.819Z,16.06
2018-07-14T03:31:30.769Z,16.07
2018-07-14T03:32:30.716Z,16.07
2018-07-14T03:33:30.666Z,16.07
2018-07-14T03:34:30.615Z,15.96
2018-07-14T03:35:30.565Z,16.00
2018-07-14T03:36:30.510Z,16.01
2018-07-14T03:37:30.465Z,16.04
2018-07-14T03:38:30.407Z,16.07
2018-07-14T03:39:30.357Z,16.11
2018-07-14T03:40:30.304Z,16.11
2018-07-14T03:41:30.252Z,16.01
2018-07-14T03:42:30.231Z,15.99
2018-07-14T03:43:30.154Z,15.96
2018-07-14T03:44:30.104Z,15.94
2018-07-14T03:45:30.050Z,15.99
2018-07-14T03:46:29.996Z,16.04
2018-07-14T03:47:29.946Z,15.99
2018-07-14T03:48:29.893Z,15.92
2018-07-14T03:49:29.842Z,16.06
2018-07-14T03:50:29.791Z,16.01
2018-07-14T03:51:29.742Z,16.07
2018-07-14T03:52:29.687Z,15.99
2018-07-14T03:53:29.637Z,16.04
2018-07-14T03:54:29.588Z,16.07
2018-07-14T03:55:29.535Z,16.11
2018-07-14T03:56:29.484Z,16.07
2018-07-14T03:57:29.432Z,16.16
2018-07-14T03:58:29.382Z,16.20
2018-07-14T03:59:29.329Z,16.14
2018-07-14T04:00:29.278Z,16.18
2018-07-14T04:01:29.226Z,16.22
2018-07-14T04:02:29.176Z,16.12
2018-07-14T04:03:29.127Z,16.16
2018-07-14T04:04:29.074Z,16.18
2018-07-14T04:05:29.022Z,16.23
2018-07-14T04:06:28.997Z,16.16
2018-07-14T04:07:28.920Z,16.18
2018-07-14T04:08:28.870Z,16.23
2018-07-14T04:09:28.818Z,16.25
2018-07-14T04:10:28.767Z,16.22
2018-07-14T04:11:28.716Z,16.23
2018-07-14T04:12:28.664Z,16.22
2018-07-14T04:13:28.614Z,16.22
2018-07-14T04:14:28.562Z,16.26
2018-07-14T04:15:28.518Z,16.30
2018-07-14T04:16:28.461Z,16.27
2018-07-14T04:17:28.408Z,16.31
2018-07-14T04:18:28.359Z,16.35
2018-07-14T04:19:28.306Z,16.25
2018-07-14T04:20:28.256Z,16.33
2018-07-14T04:21:28.205Z,16.27
2018-07-14T04:22:28.154Z,16.31
2018-07-14T04:23:28.102Z,16.18
2018-07-14T04:24:28.051Z,16.16
2018-07-14T04:25:28.000Z,16.22
2018-07-14T04:26:27.946Z,16.11
2018-07-14T04:27:27.899Z,16.09
2018-07-14T04:28:27.847Z,16.07
2018-07-14T04:29:27.793Z,16.16
2018-07-14T04:30:27.747Z,16.15
2018-07-14T04:31:27.690Z,16.25
2018-07-14T04:32:27.638Z,16.16
2018-07-14T04:33:27.590Z,16.23
2018-07-14T04:34:27.536Z,16.12
2018-07-14T04:35:27.489Z,16.16
2018-07-14T04:36:27.436Z,16.20
2018-07-14T04:37:27.389Z,16.31
2018-07-14T04:38:27.332Z,16.31
2018-07-14T04:39:27.280Z,16.35
2018-07-14T04:40:27.230Z,16.35
2018-07-14T04:41:27.179Z,16.26
2018-07-14T04:42:27.194Z,16.14
2018-07-14T04:43:27.081Z,16.14
2018-07-14T04:44:27.028Z,16.15
2018-07-14T04:45:26.977Z,16.20
2018-07-14T04:46:26.923Z,16.27
2018-07-14T04:47:26.871Z,16.15
2018-07-14T04:48:26.818Z,16.26
2018-07-14T04:49:26.782Z,16.35
2018-07-14T04:50:26.719Z,16.35
2018-07-14T04:51:26.666Z,16.35
2018-07-14T04:52:26.618Z,16.41
2018-07-14T04:53:26.565Z,16.44
2018-07-14T04:54:26.513Z,16.50
2018-07-14T04:55:26.463Z,16.42
2018-07-14T04:56:47.403Z,16.52
2018-07-14T04:57:26.365Z,16.56
2018-07-14T04:58:26.311Z,16.62
2018-07-14T04:59:26.260Z,16.58
2018-07-14T05:00:26.208Z,16.63
2018-07-14T05:01:26.157Z,16.67
2018-07-14T05:02:26.107Z,16.68
2018-07-14T05:03:26.067Z,16.70
2018-07-14T05:04:26.005Z,16.70
2018-07-14T05:05:25.955Z,16.65
2018-07-14T05:06:25.919Z,16.74
2018-07-14T05:07:25.854Z,16.77
2018-07-14T05:08:25.804Z,16.81
2018-07-14T05:09:25.756Z,16.81
2018-07-14T05:10:25.703Z,16.80
2018-07-14T05:11:25.654Z,16.89
2018-07-14T05:12:25.602Z,16.88
2018-07-14T05:13:25.550Z,16.90
2018-07-14T05:14:25.522Z,16.93
2018-07-14T05:15:25.451Z,16.90
2018-07-14T05:16:25.400Z,16.92
2018-07-14T05:17:25.348Z,16.95
2018-07-14T05:18:25.299Z,17.13
2018-07-14T05:19:25.248Z,17.13
2018-07-14T05:20:25.196Z,17.15
2018-07-14T05:21:25.152Z,17.25
2018-07-14T05:22:25.101Z,17.35
2018-07-14T05:23:25.048Z,17.32
2018-07-14T05:24:25.000Z,17.44
2018-07-14T05:25:24.952Z,17.55
2018-07-14T05:26:24.899Z,17.69
2018-07-14T05:27:24.848Z,17.79
2018-07-14T05:28:24.796Z,17.84
2018-07-14T05:29:24.746Z,17.82
2018-07-14T05:30:24.695Z,17.91
2018-07-14T05:31:24.646Z,17.99
2018-07-14T05:32:24.646Z,18.04
2018-07-14T05:33:24.547Z,18.12
2018-07-14T05:34:24.501Z,18.19
2018-07-14T05:35:24.444Z,18.18
2018-07-14T05:36:24.396Z,18.27
2018-07-14T05:37:24.344Z,18.36
2018-07-14T05:38:24.379Z,18.40
2018-07-14T05:39:24.245Z,18.47
2018-07-14T05:40:24.194Z,18.57
2018-07-14T05:41:24.144Z,18.68
2018-07-14T05:42:24.101Z,18.61
2018-07-14T05:43:24.044Z,18.72
2018-07-14T05:44:23.994Z,18.68
2018-07-14T05:45:23.944Z,18.76
2018-07-14T05:46:23.894Z,18.77
2018-07-14T05:47:23.844Z,18.76
2018-07-14T05:48:23.795Z,18.83
2018-07-14T05:49:23.744Z,18.77
2018-07-14T05:50:23.696Z,18.87
2018-07-14T05:51:23.647Z,18.87
2018-07-14T05:52:23.595Z,18.92
2018-07-14T05:53:23.545Z,18.90
2018-07-14T05:54:23.498Z,18.92
2018-07-14T05:55:23.448Z,19.01
2018-07-14T05:56:23.396Z,19.05
2018-07-14T05:57:23.348Z,18.99
2018-07-14T05:58:23.298Z,19.02
2018-07-14T05:59:23.249Z,19.14
2018-07-14T06:00:23.202Z,19.23
2018-07-14T06:01:23.150Z,19.18
2018-07-14T06:02:23.100Z,19.23
2018-07-14T06:03:23.052Z,19.18
2018-07-14T06:04:23.001Z,19.21
2018-07-14T06:05:22.954Z,19.23
2018-07-14T06:06:22.946Z,19.36
2018-07-14T06:07:22.854Z,19.39
2018-07-14T06:08:22.805Z,19.46
2018-07-14T06:09:22.755Z,19.54
2018-07-14T06:10:22.706Z,19.66
2018-07-14T06:11:22.658Z,19.72
2018-07-14T06:12:22.608Z,19.79
2018-07-14T06:13:22.559Z,19.91
2018-07-14T06:14:22.579Z,19.88
2018-07-14T06:15:22.460Z,19.88
2018-07-14T06:16:22.412Z,19.93
2018-07-14T06:17:22.497Z,19.97
2018-07-14T06:18:22.313Z,20.02
2018-07-14T06:19:22.265Z,20.06
2018-07-14T06:20:22.214Z,20.02
2018-07-14T06:21:22.165Z,20.06
2018-07-14T06:22:22.120Z,20.06
2018-07-14T06:23:22.070Z,20.16
2018-07-14T06:24:22.019Z,20.23
2018-07-14T06:25:21.973Z,20.30
2018-07-14T06:26:21.923Z,20.35
2018-07-14T06:27:21.874Z,20.42
2018-07-14T06:28:21.824Z,20.28
2018-07-14T06:29:21.775Z,20.38
2018-07-14T06:30:21.727Z,20.50
2018-07-14T06:31:21.680Z,20.56
2018-07-14T06:32:21.629Z,20.59
2018-07-14T06:33:21.636Z,20.64
2018-07-14T06:34:21.534Z,20.62
2018-07-14T06:35:21.484Z,20.66
2018-07-14T06:36:21.434Z,20.72
2018-07-14T06:37:21.388Z,20.77
2018-07-14T06:38:21.353Z,20.77
2018-07-14T06:39:21.292Z,20.79
2018-07-14T06:40:21.243Z,20.84
2018-07-14T06:41:21.194Z,20.87
2018-07-14T06:42:21.146Z,20.87
2018-07-14T06:43:21.098Z,20.98
2018-07-14T06:44:21.049Z,20.83
2018-07-14T06:45:21.001Z,21.01
2018-07-14T06:46:20.955Z,21.01
2018-07-14T06:47:20.907Z,21.11
2018-07-14T06:48:20.857Z,21.08
2018-07-14T06:49:20.810Z,21.17
2018-07-14T06:50:20.762Z,21.21
2018-07-14T06:51:20.713Z,21.34
2018-07-14T06:52:20.668Z,21.36
2018-07-14T06:53:20.702Z,21.38
2018-07-14T06:54:20.708Z,21.44
2018-07-14T06:55:20.525Z,21.46
2018-07-14T06:56:20.475Z,21.51
2018-07-14T06:57:20.427Z,21.59
2018-07-14T06:58:20.380Z,21.67
2018-07-14T06:59:20.332Z,21.78
2018-07-14T07:00:20.285Z,21.81
2018-07-14T07:01:20.239Z,21.78
2018-07-14T07:02:20.188Z,21.82
2018-07-14T07:03:20.205Z,21.90
2018-07-14T07:04:20.094Z,21.95
2018-07-14T07:05:20.050Z,21.98
2018-07-14T07:06:19.999Z,22.10
2018-07-14T07:07:19.952Z,22.06
2018-07-14T07:08:19.904Z,22.06
2018-07-14T07:09:19.856Z,22.25
2018-07-14T07:10:19.808Z,22.17
2018-07-14T07:11:19.763Z,22.22
2018-07-14T07:12:19.715Z,22.34
2018-07-14T07:13:19.668Z,22.41
2018-07-14T07:14:19.619Z,22.43
2018-07-14T07:15:19.573Z,22.43
2018-07-14T07:16:19.525Z,22.54
2018-07-14T07:17:19.480Z,22.53
2018-07-14T07:18:19.434Z,22.57
2018-07-14T07:19:19.448Z,22.65
2018-07-14T07:20:19.336Z,22.69
2018-07-14T07:21:19.324Z,22.69
2018-07-14T07:22:19.242Z,22.77
2018-07-14T07:23:19.195Z,22.77
2018-07-14T07:24:19.146Z,22.93
2018-07-14T07:25:19.101Z,22.94
2018-07-14T07:26:19.055Z,23.02
2018-07-14T07:27:19.008Z,23.04
2018-07-14T07:28:18.963Z,23.17
2018-07-14T07:29:18.912Z,23.12
2018-07-14T07:30:18.866Z,23.20
2018-07-14T07:31:18.819Z,23.38
2018-07-14T07:32:18.771Z,23.39
2018-07-14T07:33:18.725Z,23.32
2018-07-14T07:34:18.678Z,23.38
2018-07-14T07:35:18.634Z,23.31
2018-07-14T07:36:18.594Z,23.40
2018-07-14T07:37:18.538Z,23.43
2018-07-14T07:38:18.492Z,23.47
2018-07-14T07:39:18.445Z,23.53
2018-07-14T07:40:18.399Z,23.61
2018-07-14T07:41:18.351Z,23.67
2018-07-14T07:42:18.313Z,23.67
2018-07-14T07:43:18.277Z,23.67
2018-07-14T07:44:18.212Z,23.75
2018-07-14T07:45:18.167Z,23.79
2018-07-14T07:46:18.118Z,23.80
2018-07-14T07:47:18.074Z,23.89
2018-07-14T07:48:18.026Z,23.98
2018-07-14T07:49:17.980Z,24.04
2018-07-14T07:50:17.933Z,24.16
2018-07-14T07:51:17.891Z,24.27
2018-07-14T07:52:17.841Z,24.41
2018-07-14T07:53:17.794Z,24.52
2018-07-14T07:54:17.748Z,24.63
2018-07-14T07:55:17.703Z,24.61
2018-07-14T07:56:17.657Z,24.68
2018-07-14T07:57:17.613Z,24.54
2018-07-14T07:58:17.670Z,24.60
2018-07-14T07:59:17.519Z,24.69
2018-07-14T08:00:17.474Z,24.71
2018-07-14T08:01:17.431Z,24.82
2018-07-14T08:02:17.382Z,24.82
2018-07-14T08:03:17.337Z,24.82
2018-07-14T08:04:17.289Z,24.87
2018-07-14T08:05:17.243Z,24.90
2018-07-14T08:06:17.204Z,24.92
2018-07-14T08:07:17.153Z,24.98
2018-07-14T08:08:17.107Z,24.95
2018-07-14T08:09:17.072Z,25.10
2018-07-14T08:10:17.016Z,25.19
2018-07-14T08:11:16.971Z,25.35
2018-07-14T08:12:16.924Z,25.31
2018-07-14T08:13:16.880Z,25.49
2018-07-14T08:14:16.834Z,25.57
2018-07-14T08:15:16.792Z,25.62
2018-07-14T08:16:16.746Z,25.67
2018-07-14T08:17:16.697Z,25.72
2018-07-14T08:18:16.668Z,25.84
2018-07-14T08:19:16.608Z,25.86
2018-07-14T08:20:16.561Z,25.91
2018-07-14T08:21:16.517Z,25.86
2018-07-14T08:22:16.472Z,25.93
2018-07-14T08:23:16.428Z,25.90
2018-07-14T08:24:16.421Z,25.90
2018-07-14T08:25:16.337Z,25.91
2018-07-14T08:26:16.294Z,26.06
2018-07-14T08:27:16.251Z,25.97
2018-07-14T08:28:16.207Z,26.08
2018-07-14T08:29:16.159Z,26.09
2018-07-14T08:30:16.116Z,26.15
2018-07-14T08:31:16.069Z,26.21
2018-07-14T08:32:16.036Z,26.12
2018-07-14T08:33:15.980Z,26.32
2018-07-14T08:34:15.974Z,26.36
2018-07-14T08:35:15.890Z,26.39
2018-07-14T08:36:15.850Z,26.50
2018-07-14T08:37:15.801Z,26.50
2018-07-14T08:38:15.758Z,26.52
2018-07-14T08:39:15.713Z,26.42
2018-07-14T08:40:15.670Z,26.49
2018-07-14T08:41:15.626Z,26.54
2018-07-14T08:42:15.583Z,26.62
2018-07-14T08:43:15.535Z,26.62
2018-07-14T08:44:15.489Z,26.86
2018-07-14T08:45:15.446Z,26.76
2018-07-14T08:46:15.401Z,26.74
2018-07-14T08:47:15.366Z,26.83
2018-07-14T08:48:15.317Z,26.95
2018-07-14T08:49:15.268Z,27.06
2018-07-14T08:50:15.238Z,26.96
2018-07-14T08:51:15.201Z,26.94
2018-07-14T08:52:15.137Z,27.09
2018-07-14T08:53:15.093Z,27.11
2018-07-14T08:54:15.051Z,26.96
2018-07-14T08:55:15.007Z,27.02
2018-07-14T08:56:14.963Z,27.02
2018-07-14T08:57:14.921Z,26.95
2018-07-14T08:58:14.911Z,27.10
2018-07-14T08:59:14.830Z,27.19
2018-07-14T09:00:14.795Z,27.21
2018-07-14T09:01:14.741Z,27.38
2018-07-14T09:02:14.699Z,27.39
2018-07-14T09:03:14.655Z,27.47
2018-07-14T09:04:14.613Z,27.53
2018-07-14T09:05:14.569Z,27.39
2018-07-14T09:06:14.546Z,27.42
2018-07-14T09:07:14.485Z,27.42
2018-07-14T09:08:14.436Z,27.33
2018-07-14T09:09:14.391Z,27.41
2018-07-14T09:10:14.349Z,27.58
2018-07-14T09:11:14.309Z,27.54
2018-07-14T09:12:14.263Z,27.64
2018-07-14T09:13:14.220Z,27.80
2018-07-14T09:14:14.176Z,27.84
2018-07-14T09:15:14.131Z,27.94
2018-07-14T09:16:14.089Z,27.96
2018-07-14T09:17:14.049Z,27.86
2018-07-14T09:18:14.010Z,27.82
2018-07-14T09:19:13.959Z,27.84
2018-07-14T09:20:13.915Z,27.89
2018-07-14T09:21:13.871Z,27.88
2018-07-14T09:22:13.828Z,27.82
2018-07-14T09:23:13.784Z,27.85
2018-07-14T09:24:13.740Z,27.84
2018-07-14T09:25:13.699Z,27.84
2018-07-14T09:26:13.694Z,27.98
2018-07-14T09:27:13.615Z,27.95
2018-07-14T09:28:13.569Z,28.19
2018-07-14T09:29:13.527Z,28.21
2018-07-14T09:30:13.483Z,28.31
2018-07-14T09:31:13.441Z,28.33
2018-07-14T09:32:13.398Z,28.11
2018-07-14T09:33:13.353Z,27.98
2018-07-14T09:34:13.314Z,27.99
2018-07-14T09:35:13.269Z,27.95
2018-07-14T09:36:13.226Z,28.14
2018-07-14T09:37:13.186Z,28.16
2018-07-14T09:38:13.142Z,28.21
2018-07-14T09:39:13.097Z,28.17
2018-07-14T09:40:13.058Z,28.36
2018-07-14T09:41:13.012Z,28.43
2018-07-14T09:42:12.969Z,28.54
2018-07-14T09:43:12.926Z,28.62
2018-07-14T09:44:12.891Z,28.80
2018-07-14T09:45:12.841Z,28.77
2018-07-14T09:46:12.798Z,28.82
2018-07-14T09:47:12.771Z,28.82
2018-07-14T09:48:12.713Z,28.85
2018-07-14T09:49:12.672Z,28.91
2018-07-14T09:50:12.629Z,29.00
2018-07-14T09:51:12.589Z,29.03
2018-07-14T09:52:12.546Z,29.07
2018-07-14T09:53:12.500Z,28.84
2018-07-14T09:54:12.460Z,28.73
2018-07-14T09:55:12.478Z,28.78
2018-07-14T09:56:12.374Z,28.87
2018-07-14T09:57:12.332Z,28.93
2018-07-14T09:58:12.290Z,28.91
2018-07-14T09:59:12.247Z,28.73
2018-07-14T10:00:12.208Z,28.68
2018-07-14T10:01:12.163Z,28.63
2018-07-14T10:02:12.122Z,28.68
2018-07-14T10:03:12.082Z,28.59
2018-07-14T10:04:12.038Z,28.50
2018-07-14T10:05:11.994Z,28.51
2018-07-14T10:06:12.007Z,28.44
2018-07-14T10:07:11.912Z,28.51
2018-07-14T10:08:11.868Z,28.44
2018-07-14T10:09:11.831Z,28.56
2018-07-14T10:10:11.784Z,28.73
2018-07-14T10:11:11.741Z,28.88
2018-07-14T10:12:11.697Z,28.90
2018-07-14T10:13:11.677Z,29.03
2018-07-14T10:14:11.615Z,29.22
2018-07-14T10:15:11.575Z,29.29
2018-07-14T10:16:11.530Z,29.45
2018-07-14T10:17:11.494Z,29.55
2018-07-14T10:18:11.446Z,29.52
2018-07-14T10:19:11.405Z,29.40
2018-07-14T10:20:11.362Z,29.11
2018-07-14T10:21:11.320Z,29.03
2018-07-14T10:22:11.288Z,28.73
2018-07-14T10:23:11.235Z,28.44
2018-07-14T10:24:11.194Z,28.19
2018-07-14T10:25:11.188Z,28.07
2018-07-14T10:26:11.109Z,28.03
2018-07-14T10:27:11.067Z,27.89
2018-07-14T10:28:11.026Z,27.98
2018-07-14T10:29:11.052Z,27.84
2018-07-14T10:30:10.939Z,27.84
2018-07-14T10:31:10.897Z,27.77
2018-07-14T10:32:10.859Z,27.50
2018-07-14T10:33:10.812Z,27.61
2018-07-14T10:34:10.768Z,27.85
2018-07-14T10:35:10.725Z,27.84
2018-07-14T10:36:10.682Z,27.95
2018-07-14T10:37:10.639Z,27.85
2018-07-14T10:38:10.597Z,27.91
2018-07-14T10:39:10.554Z,27.94
2018-07-14T10:40:10.510Z,27.95
2018-07-14T10:41:10.469Z,27.84
2018-07-14T10:42:10.494Z,27.99
2018-07-14T10:43:10.384Z,28.14
2018-07-14T10:44:10.339Z,28.09
2018-07-14T10:45:10.295Z,28.06
2018-07-14T10:46:10.254Z,28.01
2018-07-14T10:47:10.211Z,27.92
2018-07-14T10:48:10.168Z,27.86
2018-07-14T10:49:10.125Z,27.84
2018-07-14T10:50:10.083Z,27.73
2018-07-14T10:51:10.040Z,27.71
2018-07-14T10:52:09.995Z,27.64
2018-07-14T10:53:09.952Z,27.64
2018-07-14T10:54:09.911Z,27.67
2018-07-14T10:55:09.872Z,27.79
2018-07-14T10:56:09.824Z,27.88
2018-07-14T10:57:09.781Z,28.07
2018-07-14T10:58:09.805Z,28.26
2018-07-14T10:59:09.694Z,28.54
2018-07-14T11:00:09.652Z,28.72
2018-07-14T11:01:09.612Z,28.95
2018-07-14T11:02:09.566Z,28.95
2018-07-14T11:03:09.523Z,29.01
2018-07-14T11:04:09.481Z,28.95
2018-07-14T11:05:09.440Z,28.95
2018-07-14T11:06:09.451Z,28.88
2018-07-14T11:07:09.354Z,28.80
2018-07-14T11:08:09.313Z,28.81
2018-07-14T11:09:09.269Z,28.81
2018-07-14T11:10:09.227Z,28.77
2018-07-14T11:11:09.185Z,28.60
2018-07-14T11:12:09.188Z,28.66
2018-07-14T11:13:09.101Z,28.56
2018-07-14T11:14:09.059Z,28.60
2018-07-14T11:15:09.034Z,28.72
2018-07-14T11:16:08.974Z,28.78
2018-07-14T11:17:08.931Z,29.00
2018-07-14T11:18:08.892Z,29.18
2018-07-14T11:19:08.850Z,29.47
2018-07-14T11:20:08.805Z,29.62
2018-07-14T11:21:08.837Z,29.93
2018-07-14T11:22:08.723Z,29.89
2018-07-14T11:23:08.680Z,29.99
2018-07-14T11:24:08.638Z,29.82
2018-07-14T11:25:08.596Z,29.59
2018-07-14T11:26:08.555Z,29.55
2018-07-14T11:27:08.514Z,29.34
2018-07-14T11:28:08.472Z,29.26
2018-07-14T11:29:08.429Z,28.96
2018-07-14T11:30:08.405Z,28.70
2018-07-14T11:31:08.347Z,28.73
2018-07-14T11:32:08.305Z,28.53
2018-07-14T11:33:08.263Z,28.43
2018-07-14T11:34:08.221Z,28.31
2018-07-14T11:35:08.180Z,28.11
2018-07-14T11:36:08.135Z,27.99
2018-07-14T11:37:08.097Z,27.94
2018-07-14T11:38:08.056Z,27.86
2018-07-14T11:39:08.012Z,27.88
2018-07-14T11:40:07.967Z,27.89
2018-07-14T11:41:07.925Z,27.84
2018-07-14T11:42:07.933Z,27.89
2018-07-14T11:43:07.840Z,27.88
2018-07-14T11:44:07.797Z,28.17
2018-07-14T11:45:07.755Z,28.32
2018-07-14T11:46:07.716Z,28.58
2018-07-14T11:47:07.672Z,28.68
2018-07-14T11:48:07.631Z,28.68
2018-07-14T11:49:07.589Z,28.73
2018-07-14T11:50:07.544Z,28.88
2018-07-14T11:51:07.504Z,29.13
2018-07-14T11:52:07.459Z,29.22
2018-07-14T11:53:07.417Z,29.23
2018-07-14T11:54:07.386Z,29.40
2018-07-14T11:55:07.336Z,29.44
2018-07-14T11:56:07.289Z,29.55
2018-07-14T11:57:07.251Z,29.66
2018-07-14T11:58:07.207Z,29.63
2018-07-14T11:59:07.166Z,29.59
2018-07-14T12:00:07.124Z,29.56
2018-07-14T12:01:07.079Z,29.50
2018-07-14T12:02:07.115Z,29.53
2018-07-14T12:03:06.997Z,29.55
2018-07-14T12:04:06.959Z,29.59
2018-07-14T12:05:06.919Z,29.74
2018-07-14T12:06:06.871Z,29.70
2018-07-14T12:07:06.831Z,29.63
2018-07-14T12:08:06.786Z,29.62
2018-07-14T12:09:06.760Z,29.43
2018-07-14T12:10:06.708Z,29.34
2018-07-14T12:11:06.669Z,29.43
2018-07-14T12:12:06.620Z,29.49
2018-07-14T12:13:06.578Z,29.41
2018-07-14T12:14:06.538Z,29.47
2018-07-14T12:15:06.496Z,29.53
2018-07-14T12:16:06.452Z,29.60
2018-07-14T12:17:06.412Z,29.62
2018-07-14T12:18:06.368Z,29.77
2018-07-14T12:19:06.328Z,29.81
2018-07-14T12:20:06.289Z,29.70
2018-07-14T12:21:06.246Z,29.60
2018-07-14T12:22:06.227Z,29.52
2018-07-14T12:23:06.162Z,29.55
2018-07-14T12:24:06.118Z,29.56
2018-07-14T12:25:06.078Z,29.60
2018-07-14T12:26:06.039Z,29.68
2018-07-14T12:27:05.994Z,29.96
2018-07-14T12:28:05.956Z,30.05
2018-07-14T12:29:05.911Z,30.16
2018-07-14T12:30:05.898Z,30.00
2018-07-14T12:31:05.829Z,29.79
2018-07-14T12:32:05.788Z,29.72
2018-07-14T12:33:05.744Z,29.75
2018-07-14T12:34:05.702Z,29.86
2018-07-14T12:35:05.669Z,29.89
2018-07-14T12:36:05.619Z,29.72
2018-07-14T12:37:05.578Z,29.77
2018-07-14T12:38:05.536Z,29.68
2018-07-14T12:39:05.496Z,29.89
2018-07-14T12:40:05.460Z,30.09
2018-07-14T12:41:05.415Z,30.18
2018-07-14T12:42:05.370Z,30.16
2018-07-14T12:43:05.331Z,30.08
2018-07-14T12:44:05.289Z,29.90
2018-07-14T12:45:05.250Z,29.86
2018-07-14T12:46:05.207Z,29.89
2018-07-14T12:47:05.165Z,29.55
2018-07-14T12:48:05.123Z,29.43
2018-07-14T12:49:05.083Z,29.49
2018-07-14T12:50:05.042Z,29.50
2018-07-14T12:51:05.000Z,29.65
2018-07-14T12:52:04.959Z,29.71